Time;durP1;ratioP1;P1;durP2;ratioP2;P2;SDS_P1;SDS_P2;PMS_P1;PMS_P2;Temp;Humidity;BMP_temperature;BMP_pressure;BME280_temperature;BME280_humidity;BME280_pressure;Samples;Min_cycle;Max_cycle;Signal;HPM_P1;HPM_P2
2022/07/28 00:02:03;;;;;;;3.00;1.10;;;10.10;99.90;;;;;;5072055;28;20044;-80
2022/07/28 00:04:29;;;;;;;2.95;1.40;;;10.10;99.90;;;;;;5072388;28;20048;-79
2022/07/28 00:07:01;;;;;;;5.63;1.60;;;10.10;99.90;;;;;;5072043;28;20488;-79
2022/07/28 00:09:27;;;;;;;4.30;1.73;;;10.10;99.90;;;;;;5071100;28;20508;-79
2022/07/28 00:11:53;;;;;;;3.42;1.40;;;10.10;99.90;;;;;;5071926;28;20128;-80
2022/07/28 00:14:20;;;;;;;3.40;1.20;;;10.50;99.90;;;;;;5049300;28;20115;-80
2022/07/28 00:16:46;;;;;;;2.72;1.10;;;10.60;99.90;;;;;;5049092;28;20270;-80
2022/07/28 00:19:11;;;;;;;4.38;1.15;;;10.40;99.90;;;;;;5049327;28;20095;-80
2022/07/28 00:21:37;;;;;;;2.88;1.27;;;10.00;99.90;;;;;;5049451;28;20037;-79
2022/07/28 00:24:04;;;;;;;4.40;1.65;;;9.90;99.90;;;;;;5049216;28;20090;-79
2022/07/28 00:26:30;;;;;;;4.90;1.48;;;9.90;99.90;;;;;;5049086;28;20068;-79
2022/07/28 00:28:58;;;;;;;3.47;1.70;;;9.80;99.90;;;;;;5049412;28;20061;-79
2022/07/28 00:31:24;;;;;;;3.33;1.40;;;9.70;99.90;;;;;;5032539;28;20122;-79
2022/07/28 00:33:49;;;;;;;4.13;2.00;;;9.70;99.90;;;;;;5048611;28;20049;-79
2022/07/28 00:36:15;;;;;;;6.40;1.92;;;10.20;99.90;;;;;;5048940;28;20048;-79
2022/07/28 00:38:41;;;;;;;4.43;1.73;;;10.30;99.90;;;;;;5048703;28;20049;-80
2022/07/28 00:41:09;;;;;;;4.40;2.33;;;9.70;99.90;;;;;;5048316;28;20049;-79
2022/07/28 00:43:39;;;;;;;4.60;2.00;;;10.40;99.90;;;;;;5048803;28;20041;-79
2022/07/28 00:46:05;;;;;;;2.92;1.60;;;9.60;99.90;;;;;;5061838;28;20052;-79
2022/07/28 00:48:31;;;;;;;5.97;1.77;;;9.50;99.90;;;;;;5071225;28;20438;-79
2022/07/28 00:50:57;;;;;;;3.83;1.90;;;9.60;99.90;;;;;;5070899;28;20102;-79
2022/07/28 00:53:23;;;;;;;6.35;1.73;;;9.60;99.90;;;;;;5070926;28;20041;-80
2022/07/28 00:55:49;;;;;;;5.13;1.83;;;9.60;99.90;;;;;;5061982;28;20110;-80
2022/07/28 00:58:15;;;;;;;5.82;2.20;;;9.60;99.90;;;;;;5049535;28;20060;-80
2022/07/28 01:00:40;;;;;;;3.42;1.98;;;9.70;99.90;;;;;;5050722;28;20123;-79
2022/07/28 01:03:06;;;;;;;4.60;2.33;;;9.60;99.90;;;;;;5050579;28;20419;-78
2022/07/28 01:05:50;;;;;;;4.50;2.10;;;10.20;99.90;;;;;;5048154;28;20115;-79
2022/07/28 01:08:34;;;;;;;6.05;2.15;;;9.60;99.90;;;;;;5032794;28;20048;-78
2022/07/28 01:11:18;;;;;;;3.17;1.77;;;9.60;99.90;;;;;;5050215;28;20041;-80
2022/07/28 01:14:06;;;;;;;6.47;1.88;;;9.60;99.90;;;;;;5062558;23;20152;-78
2022/07/28 01:16:34;;;;;;;6.90;2.00;;;9.50;99.90;;;;;;5050389;28;20037;-79
2022/07/28 01:19:55;;;;;;;4.38;2.38;;;9.60;99.90;;;;;;5048863;28;20183;-80
2022/07/28 01:22:23;;;;;;;5.88;2.00;;;9.50;99.90;;;;;;4933612;29;20142;-80
2022/07/28 01:25:01;;;;;;;5.10;2.03;;;9.50;99.90;;;;;;4949249;28;20051;-79
2022/07/28 01:27:33;;;;;;;2.88;1.70;;;9.60;99.90;;;;;;4930326;29;20435;-80
2022/07/28 01:30:20;;;;;;;3.95;1.83;;;9.60;99.90;;;;;;4930525;29;20077;-80
2022/07/28 01:32:54;;;;;;;4.53;2.10;;;9.60;99.90;;;;;;4930373;28;20051;-80
2022/07/28 01:35:24;;;;;;;6.35;2.85;;;9.60;99.90;;;;;;4930787;29;20060;-81
2022/07/28 01:37:54;;;;;;;7.47;2.50;;;9.50;99.90;;;;;;4930589;29;20044;-80
2022/07/28 01:40:24;;;;;;;5.55;2.42;;;10.30;99.90;;;;;;4930504;29;20056;-80
2022/07/28 01:42:57;;;;;;;4.93;2.22;;;10.00;99.90;;;;;;4929907;29;20056;-80
2022/07/28 01:45:25;;;;;;;4.10;2.10;;;9.60;99.90;;;;;;4930253;29;20067;-80
2022/07/28 01:47:53;;;;;;;4.95;1.70;;;10.00;99.90;;;;;;4930745;29;20380;-79
2022/07/28 01:50:21;;;;;;;3.40;2.00;;;10.10;99.90;;;;;;4930615;29;20059;-78
2022/07/28 01:52:49;;;;;;;4.38;2.15;;;9.60;99.90;;;;;;4914239;29;20067;-78
2022/07/28 01:55:19;;;;;;;4.43;2.13;;;9.50;99.90;;;;;;4930111;29;20046;-76
2022/07/28 01:57:46;;;;;;;6.07;2.40;;;9.40;99.90;;;;;;4941469;28;20054;-77
2022/07/28 02:00:13;;;;;;;4.65;2.22;;;9.90;99.90;;;;;;5030099;28;20045;-78
2022/07/28 02:02:41;;;;;;;3.80;2.30;;;9.40;99.90;;;;;;5050980;28;20079;-78
2022/07/28 02:05:11;;;;;;;5.75;2.22;;;9.40;99.90;;;;;;5069550;28;20123;-78
2022/07/28 02:07:38;;;;;;;4.47;2.30;;;9.40;99.90;;;;;;5070260;28;20041;-78
2022/07/28 02:10:05;;;;;;;4.05;2.10;;;9.40;99.90;;;;;;5076261;28;20052;-78
2022/07/28 02:12:32;;;;;;;6.63;2.50;;;9.50;99.90;;;;;;5061523;28;20033;-77
2022/07/28 02:14:59;;;;;;;4.55;2.40;;;9.40;99.90;;;;;;5062907;28;20567;-78
2022/07/28 02:17:28;;;;;;;4.75;2.30;;;9.40;99.90;;;;;;5059725;28;20491;-77
2022/07/28 02:19:57;;;;;;;3.10;2.20;;;9.40;99.90;;;;;;5071418;28;20407;-78
2022/07/28 02:22:31;;;;;;;6.50;1.65;;;9.40;99.90;;;;;;5075937;28;20064;-77
2022/07/28 02:24:57;;;;;;;4.55;2.30;;;9.40;99.90;;;;;;5071551;28;20064;-78
2022/07/28 02:27:33;;;;;;;3.70;2.05;;;9.40;99.90;;;;;;5038181;28;20139;-79
2022/07/28 02:30:06;;;;;;;5.53;2.60;;;9.40;99.90;;;;;;5063050;28;20403;-76
2022/07/28 02:32:49;;;;;;;5.57;2.30;;;9.40;99.90;;;;;;5076270;28;20051;-77
2022/07/28 02:35:31;;;;;;;6.05;2.67;;;9.40;99.90;;;;;;5075341;28;20045;-76
2022/07/28 02:38:00;;;;;;;5.40;2.25;;;9.40;99.90;;;;;;5076515;28;20056;-77
2022/07/28 02:40:34;;;;;;;3.80;2.28;;;9.40;99.90;;;;;;5074644;28;20076;-78
2022/07/28 02:43:02;;;;;;;4.13;2.30;;;9.40;99.90;;;;;;5066482;28;20063;-76
2022/07/28 02:45:30;;;;;;;8.18;2.20;;;9.30;99.90;;;;;;5055718;28;20073;-77
2022/07/28 02:48:01;;;;;;;4.75;2.00;;;9.40;99.90;;;;;;5054656;28;20057;-77
2022/07/28 02:50:28;;;;;;;4.47;2.35;;;9.40;99.90;;;;;;5060618;28;20048;-78
2022/07/28 02:53:01;;;;;;;6.38;2.35;;;9.40;99.90;;;;;;5063742;28;20041;-78
2022/07/28 02:55:27;;;;;;;4.50;2.60;;;9.30;99.90;;;;;;5054428;28;20111;-78
2022/07/28 02:57:54;;;;;;;4.95;1.70;;;9.20;99.90;;;;;;5056051;28;20443;-77
2022/07/28 03:00:22;;;;;;;5.38;2.58;;;9.80;99.90;;;;;;5064663;28;20079;-79
2022/07/28 03:02:48;;;;;;;5.75;2.28;;;9.30;99.90;;;;;;5058718;28;20052;-77
2022/07/28 03:05:15;;;;;;;4.32;1.88;;;9.30;99.90;;;;;;5056041;28;20094;-77
2022/07/28 03:07:41;;;;;;;3.72;2.50;;;9.50;99.90;;;;;;5055993;28;20148;-78
2022/07/28 03:10:08;;;;;;;5.25;2.30;;;9.30;99.90;;;;;;5055952;28;20128;-79
2022/07/28 03:12:34;;;;;;;3.85;2.33;;;9.20;99.90;;;;;;5073884;28;20394;-78
2022/07/28 03:14:59;;;;;;;4.40;2.30;;;9.30;99.90;;;;;;5075285;28;20049;-79
2022/07/28 03:17:26;;;;;;;5.78;2.38;;;9.30;99.90;;;;;;5075275;28;20087;-79
2022/07/28 03:19:51;;;;;;;4.00;2.25;;;9.30;99.90;;;;;;5072826;28;20087;-78
2022/07/28 03:22:17;;;;;;;4.05;2.00;;;9.30;99.90;;;;;;5067805;28;20091;-77
2022/07/28 03:24:52;;;;;;;5.20;1.95;;;9.30;99.90;;;;;;5052623;28;20056;-79
2022/07/28 03:27:32;;;;;;;3.88;2.25;;;9.30;99.90;;;;;;5053541;28;20045;-78
2022/07/28 03:30:03;;;;;;;4.15;1.92;;;9.30;99.90;;;;;;5052310;28;20053;-80
2022/07/28 03:32:31;;;;;;;6.40;2.67;;;9.30;99.90;;;;;;5051850;28;20075;-78
2022/07/28 03:34:57;;;;;;;9.20;2.63;;;9.30;99.90;;;;;;5052578;28;20055;-79
2022/07/28 03:37:32;;;;;;;8.38;2.90;;;9.30;99.90;;;;;;5052422;28;20041;-79
2022/07/28 03:40:02;;;;;;;4.85;2.63;;;9.30;99.90;;;;;;5052267;28;20504;-78
2022/07/28 03:42:29;;;;;;;6.53;2.45;;;9.30;99.90;;;;;;5052143;28;20048;-78
2022/07/28 03:44:55;;;;;;;4.43;2.42;;;9.40;99.90;;;;;;5057497;23;20515;-79
2022/07/28 03:47:24;;;;;;;9.27;2.95;;;9.40;99.90;;;;;;5051981;28;20037;-78
2022/07/28 03:49:50;;;;;;;5.07;3.03;;;9.40;99.90;;;;;;5052301;28;20052;-79
2022/07/28 03:52:17;;;;;;;7.20;2.55;;;9.40;99.90;;;;;;5051945;28;20041;-80
2022/07/28 03:54:43;;;;;;;4.15;2.10;;;9.40;99.90;;;;;;5052075;28;20166;-81
2022/07/28 03:57:09;;;;;;;6.03;2.22;;;9.40;99.90;;;;;;5051921;28;20060;-79
2022/07/28 03:59:35;;;;;;;4.60;2.67;;;9.40;99.90;;;;;;5050849;28;20060;-80
2022/07/28 04:02:00;;;;;;;3.97;2.85;;;9.50;99.90;;;;;;5050225;28;20048;-79
2022/07/28 04:04:26;;;;;;;5.07;2.75;;;9.50;99.90;;;;;;5051925;28;20044;-79
2022/07/28 04:06:52;;;;;;;5.55;2.50;;;9.50;99.90;;;;;;5052003;28;20044;-80
2022/07/28 04:09:17;;;;;;;4.15;2.60;;;9.50;99.90;;;;;;5051586;28;20053;-79
2022/07/28 04:11:43;;;;;;;4.10;2.78;;;9.60;99.90;;;;;;5052948;28;20052;-80
2022/07/28 04:14:09;;;;;;;5.75;3.20;;;9.60;99.90;;;;;;5050762;28;20045;-78
2022/07/28 04:16:34;;;;;;;4.70;3.30;;;9.60;99.90;;;;;;5057249;28;20037;-79
2022/07/28 04:19:00;;;;;;;7.43;3.08;;;9.60;99.90;;;;;;5051964;28;20029;-79
2022/07/28 04:21:26;;;;;;;6.07;3.00;;;9.70;99.90;;;;;;5050955;28;20455;-79
2022/07/28 04:23:51;;;;;;;4.45;2.97;;;10.10;99.90;;;;;;5052913;28;20519;-78
2022/07/28 04:26:17;;;;;;;5.22;3.00;;;9.80;99.90;;;;;;5061264;28;20445;-79
2022/07/28 04:28:44;;;;;;;6.15;3.38;;;10.50;99.90;;;;;;5071569;28;20044;-78
2022/07/28 04:31:10;;;;;;;5.70;2.95;;;9.90;99.90;;;;;;5071191;28;20044;-78
2022/07/28 04:33:36;;;;;;;7.32;2.92;;;10.00;99.90;;;;;;5071324;28;20118;-79
2022/07/28 04:36:02;;;;;;;4.07;2.72;;;10.00;99.90;;;;;;5071264;28;20483;-80
2022/07/28 04:38:28;;;;;;;4.40;3.00;;;10.10;99.90;;;;;;5071278;28;20041;-80
2022/07/28 04:40:54;;;;;;;7.13;2.72;;;10.10;99.90;;;;;;5069306;28;20052;-80
2022/07/28 04:43:20;;;;;;;8.55;2.70;;;10.20;99.90;;;;;;5070925;28;20796;-79
2022/07/28 04:45:46;;;;;;;4.43;2.80;;;10.30;99.90;;;;;;5070953;28;20049;-81
2022/07/28 04:48:13;;;;;;;5.90;3.20;;;10.40;99.90;;;;;;5071126;28;20513;-80
2022/07/28 04:50:43;;;;;;;10.43;3.33;;;10.40;99.90;;;;;;5070829;28;20052;-79
2022/07/28 04:53:09;;;;;;;6.97;3.10;;;10.50;99.90;;;;;;5071078;28;20045;-80
2022/07/28 04:55:37;;;;;;;4.85;2.67;;;10.90;99.90;;;;;;5068717;28;20044;-80
2022/07/28 04:58:04;;;;;;;4.75;2.58;;;11.10;99.90;;;;;;5063513;28;20048;-79
2022/07/28 05:00:29;;;;;;;7.50;2.60;;;10.60;99.90;;;;;;5050887;28;20045;-78
2022/07/28 05:02:57;;;;;;;3.83;2.58;;;10.70;99.90;;;;;;5050848;28;20037;-79
2022/07/28 05:05:28;;;;;;;6.32;2.95;;;10.70;99.90;;;;;;5050637;28;20112;-79
2022/07/28 05:07:54;;;;;;;3.90;2.45;;;11.20;99.90;;;;;;5057742;23;20057;-79
2022/07/28 05:10:26;;;;;;;5.57;3.10;;;11.10;99.90;;;;;;5050722;28;20040;-79
2022/07/28 05:12:53;;;;;;;8.88;2.95;;;11.60;99.90;;;;;;5062159;28;20059;-79
2022/07/28 05:15:19;;;;;;;6.43;2.83;;;11.20;99.90;;;;;;5045763;23;20143;-79
2022/07/28 05:17:45;;;;;;;7.15;3.38;;;11.00;99.90;;;;;;5053883;28;20446;-78
2022/07/28 05:20:12;;;;;;;4.60;3.10;;;11.10;99.90;;;;;;5050540;28;20094;-79
2022/07/28 05:22:42;;;;;;;7.82;3.00;;;11.00;99.90;;;;;;5049376;28;20049;-79
2022/07/28 05:25:13;;;;;;;6.88;2.85;;;11.10;99.90;;;;;;5050625;28;20052;-80
2022/07/28 05:27:38;;;;;;;4.18;2.50;;;11.20;99.90;;;;;;5030610;28;20049;-80
2022/07/28 05:30:05;;;;;;;5.53;3.03;;;11.10;99.90;;;;;;5030362;28;20045;-79
2022/07/28 05:32:30;;;;;;;5.85;2.60;;;11.10;99.90;;;;;;5048626;28;20057;-80
2022/07/28 05:34:58;;;;;;;7.35;2.90;;;11.20;99.90;;;;;;5069917;28;20040;-80
2022/07/28 05:37:24;;;;;;;7.72;2.83;;;11.20;99.90;;;;;;5069204;28;20475;-80
2022/07/28 05:39:49;;;;;;;8.35;3.22;;;11.50;99.90;;;;;;5069835;28;20059;-80
2022/07/28 05:42:15;;;;;;;4.38;3.10;;;11.30;99.90;;;;;;5069388;28;20049;-80
2022/07/28 05:44:41;;;;;;;9.82;3.28;;;11.40;99.90;;;;;;5070175;28;20055;-80
2022/07/28 05:47:06;;;;;;;6.72;3.10;;;11.60;99.90;;;;;;5070093;28;20036;-80
2022/07/28 05:49:32;;;;;;;6.90;3.33;;;11.60;99.90;;;;;;5068891;28;20487;-79
2022/07/28 05:51:58;;;;;;;7.32;3.45;;;11.70;99.90;;;;;;5069679;28;20137;-80
2022/07/28 05:54:24;;;;;;;5.32;2.90;;;11.80;99.90;;;;;;5070017;28;20129;-79
2022/07/28 05:56:50;;;;;;;8.25;3.45;;;11.90;99.90;;;;;;5067411;28;20059;-80
2022/07/28 05:59:15;;;;;;;11.65;2.95;;;11.90;99.90;;;;;;5064088;28;20057;-81
2022/07/28 06:01:41;;;;;;;3.97;3.00;;;12.10;99.90;;;;;;5049974;28;20052;-80
2022/07/28 06:04:07;;;;;;;5.43;3.17;;;12.20;99.90;;;;;;5049599;28;20179;-80
2022/07/28 06:06:32;;;;;;;6.07;3.13;;;12.20;99.90;;;;;;5049443;28;20091;-79
2022/07/28 06:08:58;;;;;;;3.78;2.80;;;12.30;99.90;;;;;;5049600;28;20041;-80
2022/07/28 06:11:24;;;;;;;5.93;3.35;;;12.50;99.90;;;;;;5049680;28;20041;-80
2022/07/28 06:13:51;;;;;;;6.45;3.25;;;12.60;99.90;;;;;;5066313;28;20039;-81
2022/07/28 06:16:19;;;;;;;3.85;2.50;;;12.60;99.90;;;;;;5069947;28;20059;-80
2022/07/28 06:18:45;;;;;;;7.35;3.10;;;12.70;99.90;;;;;;5068016;28;20124;-80
2022/07/28 06:21:10;;;;;;;7.20;2.88;;;12.90;99.90;;;;;;5069868;28;20123;-79
2022/07/28 06:23:36;;;;;;;8.93;3.25;;;13.00;99.90;;;;;;5069356;28;20711;-80
2022/07/28 06:26:02;;;;;;;3.85;2.17;;;13.10;99.90;;;;;;5062132;28;20052;-79
2022/07/28 06:28:28;;;;;;;6.40;1.92;;;13.20;99.90;;;;;;5049464;28;20478;-80
2022/07/28 06:30:54;;;;;;;6.90;2.40;;;13.40;99.90;;;;;;5049701;28;20049;-80
2022/07/28 06:33:19;;;;;;;8.05;2.75;;;13.50;99.90;;;;;;5063184;28;20106;-80
2022/07/28 06:35:45;;;;;;;8.80;2.75;;;13.50;99.90;;;;;;5069447;28;20086;-80
2022/07/28 06:38:11;;;;;;;4.78;2.40;;;13.70;99.90;;;;;;5069591;28;20049;-79
2022/07/28 06:40:36;;;;;;;6.35;2.25;;;13.70;99.90;;;;;;5068035;28;20068;-79
2022/07/28 06:43:02;;;;;;;6.43;2.35;;;13.80;99.90;;;;;;5058476;28;20048;-80
2022/07/28 06:45:28;;;;;;;7.28;2.10;;;14.20;99.90;;;;;;5032144;28;20552;-80
2022/07/28 06:47:54;;;;;;;9.55;2.30;;;14.10;99.90;;;;;;5034401;28;20051;-81
2022/07/28 06:50:20;;;;;;;7.72;2.53;;;14.20;99.90;;;;;;5049783;28;20696;-80
2022/07/28 06:52:46;;;;;;;5.70;2.60;;;14.30;99.90;;;;;;5049525;28;20468;-80
2022/07/28 06:55:14;;;;;;;6.47;2.20;;;14.40;99.90;;;;;;5055869;28;20380;-80
2022/07/28 06:57:41;;;;;;;8.73;2.30;;;14.50;99.90;;;;;;5020210;28;20140;-81
2022/07/28 07:00:09;;;;;;;6.75;2.08;;;14.60;99.90;;;;;;5031638;28;20053;-80
2022/07/28 07:02:39;;;;;;;5.22;2.13;;;14.70;99.90;;;;;;5045472;28;20198;-80
2022/07/28 07:05:06;;;;;;;6.40;2.00;;;14.90;99.90;;;;;;5072856;28;20131;-81
2022/07/28 07:07:32;;;;;;;7.72;1.80;;;15.00;99.90;;;;;;5071552;28;20037;-80
2022/07/28 07:09:58;;;;;;;6.18;2.25;;;15.20;99.90;;;;;;5072135;28;20059;-80
2022/07/28 07:12:23;;;;;;;5.47;2.17;;;15.20;99.90;;;;;;5072856;28;20487;-79
2022/07/28 07:14:49;;;;;;;5.28;1.80;;;15.30;99.90;;;;;;5071190;28;20117;-80
2022/07/28 07:17:15;;;;;;;4.28;1.90;;;15.40;99.90;;;;;;5066098;28;20495;-80
2022/07/28 07:19:41;;;;;;;6.32;1.65;;;15.50;99.90;;;;;;5054881;28;20845;-80
2022/07/28 07:22:06;;;;;;;6.55;1.95;;;15.60;99.90;;;;;;5052836;28;20049;-80
2022/07/28 07:24:32;;;;;;;7.90;1.67;;;15.70;99.90;;;;;;5052664;28;20037;-79
2022/07/28 07:26:58;;;;;;;4.50;1.20;;;16.00;99.90;;;;;;5052733;28;20037;-80
2022/07/28 07:29:23;;;;;;;9.05;1.40;;;15.80;99.90;;;;;;5052693;28;20123;-80
2022/07/28 07:31:49;;;;;;;7.97;1.50;;;15.90;99.90;;;;;;5052771;28;20565;-80
2022/07/28 07:34:15;;;;;;;5.60;1.70;;;15.90;99.90;;;;;;5052673;28;20059;-79
2022/07/28 07:36:41;;;;;;;5.38;1.60;;;16.10;99.90;;;;;;5051355;28;20053;-78
2022/07/28 07:39:06;;;;;;;4.60;1.50;;;16.00;99.90;;;;;;5051006;28;20033;-80
2022/07/28 07:41:32;;;;;;;9.45;1.58;;;16.00;99.90;;;;;;5052150;28;20044;-81
2022/07/28 07:43:58;;;;;;;6.20;1.10;;;16.00;99.90;;;;;;5050874;28;20064;-80
2022/07/28 07:46:24;;;;;;;4.03;1.10;;;16.00;99.90;;;;;;5051091;28;20045;-83
2022/07/28 07:48:49;;;;;;;3.28;0.90;;;16.20;99.90;;;;;;5052580;28;20054;-80
2022/07/28 07:51:15;;;;;;;4.55;0.90;;;16.00;99.90;;;;;;5055466;28;20708;-79
2022/07/28 07:53:41;;;;;;;6.18;0.70;;;16.00;99.90;;;;;;5040324;28;20108;-80
2022/07/28 07:56:06;;;;;;;7.22;0.90;;;15.90;99.90;;;;;;5031916;28;20080;-80
2022/07/28 07:58:32;;;;;;;2.13;0.73;;;16.00;99.90;;;;;;5050383;28;20468;-80
2022/07/28 08:01:33;;;;;;;5.13;0.70;;;15.90;99.90;;;;;;5051717;28;20484;-78
2022/07/28 08:04:01;;;;;;;7.78;1.00;;;15.90;99.90;;;;;;5016567;28;20057;-82
2022/07/28 08:06:34;;;;;;;4.32;0.90;;;16.40;99.90;;;;;;5008330;28;21573;-78
2022/07/28 08:08:59;;;;;;;4.25;1.00;;;16.00;99.90;;;;;;4997371;28;20053;-79
2022/07/28 08:11:25;;;;;;;4.60;0.77;;;16.00;99.90;;;;;;5029064;28;20478;-77
2022/07/28 08:13:51;;;;;;;2.83;0.77;;;16.00;99.90;;;;;;5012046;28;20156;-79
2022/07/28 08:16:17;;;;;;;4.75;0.60;;;16.10;99.90;;;;;;5029242;28;20054;-84
2022/07/28 08:18:45;;;;;;;6.63;0.90;;;16.10;99.90;;;;;;5029106;28;20065;-80
2022/07/28 08:21:11;;;;;;;4.05;0.80;;;16.10;99.90;;;;;;4989718;28;20092;-83
2022/07/28 08:23:37;;;;;;;5.53;1.00;;;16.20;99.90;;;;;;5002292;28;20088;-86
2022/07/28 08:26:04;;;;;;;7.00;0.80;;;16.10;99.90;;;;;;4992934;28;20088;-82
2022/07/28 08:28:30;;;;;;;3.97;0.80;;;16.30;99.90;;;;;;4992402;28;20789;-82
2022/07/28 08:30:56;;;;;;;3.33;0.77;;;16.30;99.90;;;;;;4992811;28;20045;-81
2022/07/28 08:33:22;;;;;;;5.28;0.90;;;16.30;99.90;;;;;;5008931;28;20054;-84
2022/07/28 08:35:48;;;;;;;2.88;0.75;;;16.80;99.90;;;;;;5009034;28;20042;-83
2022/07/28 08:38:14;;;;;;;4.63;0.75;;;16.60;99.90;;;;;;5009093;28;20050;-81
2022/07/28 08:40:42;;;;;;;5.90;1.40;;;16.60;99.90;;;;;;5030262;28;20052;-86
2022/07/28 08:43:24;;;;;;;5.10;1.73;;;16.80;99.90;;;;;;5050903;28;20132;-85
2022/07/28 08:45:51;;;;;;;4.65;1.33;;;16.90;99.90;;;;;;5031455;28;20065;-78
2022/07/28 08:48:19;;;;;;;10.65;1.58;;;17.00;99.90;;;;;;5033884;28;20048;-82
2022/07/28 08:50:46;;;;;;;5.07;1.60;;;17.20;99.90;;;;;;5035951;28;20128;-76
2022/07/28 08:53:14;;;;;;;5.07;1.85;;;17.30;99.90;;;;;;5050606;28;20480;-79
2022/07/28 08:55:40;;;;;;;6.20;1.42;;;17.40;99.90;;;;;;5049565;28;20132;-77
2022/07/28 08:58:06;;;;;;;4.05;1.33;;;17.50;99.90;;;;;;5050705;28;20125;-83
2022/07/28 09:00:42;;;;;;;4.43;1.35;;;17.70;99.90;;;;;;5049585;28;20041;-81
2022/07/28 09:03:11;;;;;;;9.07;1.50;;;18.00;99.90;;;;;;5050582;28;20060;-79
2022/07/28 09:05:39;;;;;;;3.90;1.52;;;17.80;99.90;;;;;;5065906;28;20594;-79
2022/07/28 09:08:05;;;;;;;5.18;1.00;;;17.90;99.90;;;;;;5050381;28;20053;-79
2022/07/28 09:10:30;;;;;;;2.88;1.00;;;18.00;99.90;;;;;;5050462;28;20088;-83
2022/07/28 09:12:56;;;;;;;6.32;1.50;;;18.00;99.90;;;;;;5049327;28;20080;-80
2022/07/28 09:15:22;;;;;;;2.30;0.75;;;18.10;99.90;;;;;;5050064;28;20049;-83
2022/07/28 09:17:48;;;;;;;4.18;0.85;;;18.10;99.90;;;;;;5048230;28;20502;-81
2022/07/28 09:20:15;;;;;;;4.72;0.98;;;18.20;99.90;;;;;;5049054;28;20045;-81
2022/07/28 09:22:55;;;;;;;6.38;0.90;;;18.10;99.90;;;;;;5050145;28;20057;-85
2022/07/28 09:25:21;;;;;;;4.72;1.00;;;18.30;99.90;;;;;;5067204;23;20060;-80
2022/07/28 09:27:47;;;;;;;3.78;0.65;;;18.40;99.90;;;;;;5069356;28;20056;-78
2022/07/28 09:30:12;;;;;;;3.40;0.80;;;18.60;99.90;;;;;;5070248;28;20041;-78
2022/07/28 09:32:38;;;;;;;6.07;0.80;;;18.70;99.90;;;;;;5070306;28;20049;-78
2022/07/28 09:35:17;;;;;;;3.15;0.55;;;18.70;99.90;;;;;;5068979;28;20040;-78
2022/07/28 09:37:44;;;;;;;3.22;0.73;;;18.70;99.90;;;;;;5068973;28;20063;-82
2022/07/28 09:40:11;;;;;;;3.10;0.77;;;18.80;99.90;;;;;;5052797;28;20043;-83
2022/07/28 09:42:48;;;;;;;4.85;0.60;;;18.90;99.90;;;;;;5070165;28;20487;-81
2022/07/28 09:45:14;;;;;;;5.03;0.80;;;19.00;99.90;;;;;;5069926;28;20083;-77
2022/07/28 09:47:40;;;;;;;2.33;0.65;;;19.00;99.90;;;;;;5070138;28;20040;-82
2022/07/28 09:50:06;;;;;;;2.80;0.70;;;19.00;99.90;;;;;;5069774;28;20084;-80
2022/07/28 09:52:34;;;;;;;2.40;0.55;;;19.20;99.90;;;;;;5068893;28;20056;-81
2022/07/28 09:55:05;;;;;;;3.30;0.70;;;19.10;99.90;;;;;;5068735;28;20579;-83
2022/07/28 09:57:32;;;;;;;10.35;1.25;;;19.20;99.90;;;;;;5068512;28;20407;-80
2022/07/28 10:00:22;;;;;;;6.30;0.80;;;19.30;99.90;;;;;;5069861;28;20100;-83
2022/07/28 10:02:54;;;;;;;2.72;0.70;;;19.30;99.90;;;;;;5068004;28;20040;-84
2022/07/28 10:05:19;;;;;;;3.28;0.80;;;19.40;99.90;;;;;;5069647;28;20040;-82
2022/07/28 10:07:57;;;;;;;3.17;0.70;;;19.70;99.90;;;;;;5068631;28;20044;-82
2022/07/28 10:10:40;;;;;;;4.88;0.90;;;20.00;99.90;;;;;;5069878;28;20044;-81
2022/07/28 10:13:06;;;;;;;3.67;0.70;;;20.30;99.90;;;;;;5069615;28;20040;-82
2022/07/28 10:18:31;;;;;;;3.15;0.60;;;20.40;99.90;;;;;;5069694;28;20051;-84
2022/07/28 10:20:57;;;;;;;2.40;0.50;;;20.80;99.90;;;;;;5069788;28;20049;-80
2022/07/28 10:23:22;;;;;;;4.22;0.77;;;21.00;99.90;;;;;;5069575;28;20047;-83
2022/07/28 10:25:50;;;;;;;5.10;0.88;;;21.10;99.90;;;;;;5069340;28;20060;-84
2022/07/28 10:28:21;;;;;;;3.30;0.50;;;21.30;99.90;;;;;;5068565;28;20547;-82
2022/07/28 10:30:50;;;;;;;3.47;0.90;;;21.40;99.90;;;;;;5056291;28;20051;-80
2022/07/28 10:33:17;;;;;;;2.75;0.60;;;21.50;99.90;;;;;;5073339;28;20119;-81
2022/07/28 10:35:47;;;;;;;4.53;0.73;;;21.40;99.90;;;;;;5073686;28;20045;-81
2022/07/28 10:38:15;;;;;;;8.07;0.95;;;21.30;99.90;;;;;;5073389;28;20141;-79
2022/07/28 10:40:45;;;;;;;2.95;0.70;;;21.50;99.90;;;;;;5073400;28;20048;-81
2022/07/28 10:43:12;;;;;;;4.15;0.93;;;21.70;99.90;;;;;;5073629;28;20041;-79
2022/07/28 10:45:38;;;;;;;3.13;0.65;;;21.90;99.90;;;;;;5073794;28;20157;-81
2022/07/28 10:48:05;;;;;;;1.60;0.50;;;21.80;99.90;;;;;;5073082;28;20558;-81
2022/07/28 10:50:38;;;;;;;8.20;0.80;;;21.90;99.90;;;;;;5073103;28;20093;-79
2022/07/28 10:53:06;;;;;;;2.45;0.70;;;22.30;99.90;;;;;;5073185;28;20394;-77
2022/07/28 10:55:32;;;;;;;3.72;0.70;;;22.10;99.90;;;;;;5073304;28;20040;-81
2022/07/28 10:58:16;;;;;;;2.67;0.65;;;22.20;99.90;;;;;;5073232;28;20067;-82
2022/07/28 11:00:52;;;;;;;3.88;0.60;;;21.90;99.00;;;;;;5072835;28;20514;-81
2022/07/28 11:03:38;;;;;;;4.60;0.50;;;21.70;99.20;;;;;;5072739;28;20040;-77
2022/07/28 11:06:23;;;;;;;3.10;0.95;;;21.50;99.00;;;;;;5073433;28;20044;-82
2022/07/28 11:08:51;;;;;;;1.70;0.45;;;21.40;98.70;;;;;;5073269;28;20102;-81
2022/07/28 11:11:50;;;;;;;4.80;0.90;;;21.30;99.60;;;;;;5073075;28;20052;-79
2022/07/28 11:14:26;;;;;;;6.00;0.93;;;21.30;99.50;;;;;;5072767;28;20090;-82
2022/07/28 11:17:04;;;;;;;2.13;0.88;;;21.20;99.60;;;;;;5072886;28;20053;-85
2022/07/28 11:19:45;;;;;;;1.98;0.60;;;21.30;99.40;;;;;;5072483;28;20044;-80
2022/07/28 11:22:26;;;;;;;4.68;0.70;;;21.40;99.40;;;;;;5072695;28;20040;-80
2022/07/28 11:24:55;;;;;;;2.72;0.70;;;21.50;99.90;;;;;;5072505;28;20060;-79
2022/07/28 11:27:42;;;;;;;4.32;1.30;;;21.70;99.90;;;;;;5071209;28;20492;-80
2022/07/28 11:30:27;;;;;;;2.75;0.80;;;21.90;99.30;;;;;;5072590;28;20055;-82
2022/07/28 11:32:59;;;;;;;5.15;1.35;;;21.90;98.10;;;;;;5072336;28;20052;-84
2022/07/28 11:35:26;;;;;;;4.45;1.13;;;22.20;99.50;;;;;;5072247;28;20127;-89
2022/07/28 11:38:02;;;;;;;1.90;0.60;;;22.60;99.40;;;;;;5072387;28;20052;-80
2022/07/28 11:40:40;;;;;;;3.33;0.70;;;22.50;97.40;;;;;;5071419;28;20048;-80
2022/07/28 11:43:21;;;;;;;3.10;1.30;;;22.60;98.80;;;;;;5072216;28;20072;-83
2022/07/28 11:46:00;;;;;;;3.72;0.60;;;22.60;98.00;;;;;;5071180;28;20060;-79
2022/07/28 11:48:27;;;;;;;4.07;0.82;;;22.60;98.60;;;;;;5072460;28;20044;-84
2022/07/28 11:51:02;;;;;;;1.65;0.70;;;22.70;98.30;;;;;;5072264;28;20124;-83
2022/07/28 11:53:35;;;;;;;3.80;1.00;;;22.90;97.80;;;;;;5071223;28;20090;-79
2022/07/28 11:56:03;;;;;;;3.13;0.80;;;23.10;98.20;;;;;;5071930;28;20048;-82
2022/07/28 11:58:29;;;;;;;3.55;0.73;;;23.10;97.60;;;;;;5070706;28;20075;-80
2022/07/28 12:01:17;;;;;;;3.35;0.68;;;23.10;97.20;;;;;;5071953;28;20048;-81
2022/07/28 12:03:45;;;;;;;2.67;0.70;;;23.00;96.30;;;;;;5071881;28;20047;-78
2022/07/28 12:06:11;;;;;;;4.80;1.10;;;23.00;97.90;;;;;;5071567;28;20044;-78
2022/07/28 12:08:59;;;;;;;4.00;0.70;;;23.10;98.00;;;;;;5071824;28;20091;-78
2022/07/28 12:11:27;;;;;;;4.95;0.80;;;23.00;96.70;;;;;;5070487;28;20044;-84
2022/07/28 12:14:06;;;;;;;5.25;0.70;;;22.90;97.80;;;;;;5071831;28;20040;-79
2022/07/28 12:16:34;;;;;;;1.38;0.50;;;22.80;96.70;;;;;;5070266;28;20048;-84
2022/07/28 12:19:00;;;;;;;4.07;0.70;;;22.60;97.50;;;;;;5071623;28;20498;-78
2022/07/28 12:21:46;;;;;;;3.97;0.70;;;22.50;97.70;;;;;;5071294;28;20044;-76
2022/07/28 12:24:18;;;;;;;4.20;0.70;;;22.50;96.20;;;;;;5071369;28;20060;-81
2022/07/28 12:26:44;;;;;;;1.67;0.50;;;22.40;96.90;;;;;;5071627;28;20075;-88
2022/07/28 12:29:14;;;;;;;4.32;0.93;;;22.40;97.60;;;;;;5070162;28;20562;-80
2022/07/28 12:32:01;;;;;;;3.75;0.70;;;22.40;97.10;;;;;;5071423;28;20135;-81
2022/07/28 12:34:27;;;;;;;2.08;0.50;;;22.20;96.00;;;;;;5070254;28;20052;-76
2022/07/28 12:36:55;;;;;;;4.82;0.73;;;22.20;97.10;;;;;;5071322;28;20045;-82
2022/07/28 12:39:24;;;;;;;2.17;0.70;;;22.20;97.00;;;;;;5069645;28;20442;-77
2022/07/28 12:42:05;;;;;;;3.22;0.70;;;22.00;96.50;;;;;;5071344;28;20052;-86
2022/07/28 12:44:35;;;;;;;3.92;0.70;;;22.00;96.50;;;;;;5069754;28;20048;-78
2022/07/28 12:47:02;;;;;;;2.47;0.50;;;22.10;97.20;;;;;;5069663;28;20048;-85
2022/07/28 12:49:28;;;;;;;3.95;0.60;;;22.30;96.60;;;;;;5069968;28;20044;-84
2022/07/28 12:51:54;;;;;;;2.58;0.60;;;22.40;97.10;;;;;;5052730;28;20295;-79
2022/07/28 12:54:34;;;;;;;3.28;0.50;;;22.80;96.80;;;;;;5071131;28;20041;-87
2022/07/28 12:56:59;;;;;;;3.88;1.73;;;22.80;95.90;;;;;;5070845;28;20048;-81
2022/07/28 12:59:32;;;;;;;5.78;1.00;;;22.80;96.80;;;;;;5070981;28;20056;-77
2022/07/28 13:01:58;;;;;;;2.65;0.60;;;22.90;96.20;;;;;;5070997;28;20727;-79
2022/07/28 13:04:43;;;;;;;4.00;0.90;;;22.90;96.50;;;;;;5070779;28;20048;-79